Flight Track Log - Related Links

Times and Time Zones

All times are in EST time to prevent confusion due to time zone crossing. See the N589H flight status page for this flight to view local times or setup timezone preferences in your user account.

Time Position Orientation Groundspeed Altitude Reporting Facility
EST Latitude Longitude Course Direction KTS MPH feet Rate Location/Type
Wed 02:31:08 AM 44.4167 -79.4667 190° South 180 207 5,300  Level Toronto Center
Wed 02:32:08 AM 44.3667 -79.4667 180° South 200 230 6,800 1,950 Climbing Toronto Center
Wed 02:33:08 AM 44.3000 -79.5000 200° South 210 242 9,200 2,200 Climbing Toronto Center
Wed 02:34:08 AM 44.2500 -79.5000 180° South 210 242 11,200 1,850 Climbing Toronto Center
Wed 02:35:00 AM 43.9991 -79.6307 187° South  Level FlightAware Approximate
Wed 02:35:08 AM 44.2000 -79.5167 193° South 200 230 12,900  Level Toronto Center
Wed 02:36:00 AM 43.9189 -79.6495 190° South  Level FlightAware Approximate
Wed 02:36:08 AM 44.1333 -79.5167 180° South 220 253 15,400  Level Toronto Center
Wed 02:37:08 AM 44.0833 -79.5167 180° South 200 230 16,900 1,550 Climbing Toronto Center
Wed 02:38:08 AM 44.0167 -79.5333 190° South 210 242 18,500 1,550 Climbing Toronto Center
Wed 02:39:08 AM 43.9667 -79.5333 180° South 210 242 20,000 1,450 Climbing Toronto Center
Wed 02:40:08 AM 43.9000 -79.5667 200° South 210 242 21,400 1,650 Climbing Toronto Center
Wed 02:41:08 AM 43.8500 -79.5667 180° South 210 242 23,300 1,750 Climbing Toronto Center
Wed 02:42:08 AM 43.7833 -79.5833 190° South 210 242 24,900 1,600 Climbing Toronto Center
Wed 02:43:08 AM 43.7333 -79.5833 180° South 200 230 26,500 1,550 Climbing Toronto Center
Wed 02:44:08 AM 43.6833 -79.6167 206° Southwest 190 219 28,000 1,350 Climbing Toronto Center
Wed 02:45:08 AM 43.6167 -79.6167 180° South 200 230 29,200 1,100 Climbing Toronto Center
Wed 02:46:08 AM 43.5667 -79.6167 180° South 190 219 30,200 1,100 Climbing Toronto Center
Wed 02:47:08 AM 43.5167 -79.6333 194° South 200 230 31,400 900 Climbing Toronto Center
Wed 02:48:08 AM 43.4667 -79.6333 180° South 200 230 32,000 300 Climbing Toronto Center
Wed 02:49:08 AM 43.4000 -79.6500 190° South 220 253 32,000  Level Toronto Center
Wed 02:50:08 AM 43.3333 -79.6500 180° South 240 276 32,000  Level Toronto Center
Wed 02:51:08 AM 43.2667 -79.6833 200° South 260 299 32,000  Level Toronto Center
Wed 02:52:08 AM 43.1833 -79.6833 180° South 260 299 32,000  Level Toronto Center
Wed 02:53:08 AM 43.1167 -79.7000 190° South 260 299 32,000  Level Toronto Center
Wed 02:54:08 AM 43.0500 -79.7000 180° South 260 299 32,000  Level Toronto Center
Wed 02:55:08 AM 42.9833 -79.7167 190° South 250 288 32,000  Level Toronto Center
Wed 02:56:08 AM 42.9000 -79.7167 180° South 260 299 32,000  Level Toronto Center
Wed 02:57:04 AM 42.8542 -79.7628 216° Southwest 260 299 32,000  Level Cleveland Center
Wed 02:58:04 AM 42.7819 -79.7750 187° South 262 302 32,000  Level Cleveland Center
Wed 02:59:04 AM 42.7106 -79.7869 187° South 260 299 32,000  Level Cleveland Center
Wed 03:00:04 AM 42.6386 -79.7992 187° South 261 300 32,000  Level Cleveland Center
Wed 03:01:04 AM 42.5664 -79.8117 187° South 261 300 32,000  Level Cleveland Center
Wed 03:02:04 AM 42.4944 -79.8242 187° South 260 299 32,000  Level Cleveland Center
Wed 03:03:04 AM 42.4178 -79.8372 187° South 264 304 32,000  Level Cleveland Center
Wed 03:04:04 AM 42.3453 -79.8494 187° South 265 305 32,000  Level Cleveland Center
Wed 03:05:04 AM 42.2739 -79.8614 187° South 262 302 32,000  Level Cleveland Center
Wed 03:06:04 AM 42.2014 -79.8731 187° South 262 302 32,000  Level Cleveland Center
Wed 03:07:04 AM 42.1283 -79.8864 188° South 266 306 32,000  Level Cleveland Center
Wed 03:08:05 AM 42.0561 -79.8967 186° South 264 304 32,000  Level Cleveland Center
Wed 03:09:05 AM 41.9825 -79.9111 188° South 267 307 32,000  Level Cleveland Center
Wed 03:10:05 AM 41.8989 -79.9269 188° South 273 314 32,000  Level Cleveland Center
Wed 03:11:05 AM 41.8233 -79.9397 187° South 270 311 32,000  Level Cleveland Center
Wed 03:12:05 AM 41.7617 -79.9506 187° South 266 306 32,000  Level Cleveland Center
Wed 03:13:05 AM 41.6861 -79.9633 187° South 268 308 32,000  Level Cleveland Center
Wed 03:14:05 AM 41.6108 -79.9750 187° South 270 311 32,000  Level Cleveland Center
Wed 03:15:05 AM 41.5361 -79.9861 186° South 272 313 32,000  Level Cleveland Center
Wed 03:16:05 AM 41.4592 -79.9986 187° South 272 313 32,000  Level Cleveland Center
Wed 03:17:05 AM 41.3836 -80.0117 187° South 273 314 32,000  Level Cleveland Center
Wed 03:18:05 AM 41.3089 -80.0242 187° South 271 312 32,000  Level Cleveland Center
Wed 03:19:05 AM 41.2336 -80.0367 187° South 273 314 32,000  Level Cleveland Center
Wed 03:20:05 AM 41.1586 -80.0481 187° South 274 315 32,000  Level Cleveland Center
Wed 03:21:05 AM 41.0825 -80.0608 187° South 274 315 32,000  Level Cleveland Center
Wed 03:22:05 AM 41.0072 -80.0744 188° South 274 315 32,000  Level Cleveland Center
Wed 03:23:05 AM 40.9311 -80.0853 186° South 276 318 32,000  Level Cleveland Center
Wed 03:24:06 AM 40.8469 -80.1006 188° South 270 311 32,000  Level Cleveland Center
Wed 03:25:06 AM 40.7711 -80.1114 186° South 272 313 32,000  Level Cleveland Center
Wed 03:26:06 AM 40.6950 -80.1244 187° South 274 315 32,000  Level Cleveland Center
Wed 03:27:06 AM 40.6197 -80.1364 187° South 274 315 32,000  Level Cleveland Center
Wed 03:28:06 AM 40.5467 -80.1492 188° South 268 308 32,000  Level Cleveland Center
Wed 03:29:06 AM 40.4725 -80.1608 187° South 268 308 32,000  Level Cleveland Center
Wed 03:30:06 AM 40.3978 -80.1731 187° South 269 310 32,000  Level Cleveland Center
Wed 03:31:06 AM 40.3222 -80.1844 187° South 273 314 32,000  Level Cleveland Center
Wed 03:32:06 AM 40.2450 -80.1975 187° South 279 321 32,000  Level Cleveland Center
Wed 03:33:06 AM 40.1692 -80.2103 187° South 277 319 32,000  Level Cleveland Center
Wed 03:34:06 AM 40.0939 -80.2228 187° South 274 315 32,000  Level Cleveland Center
Wed 03:35:06 AM 40.0172 -80.2347 187° South 276 318 32,000  Level Cleveland Center
Wed 03:36:06 AM 39.9417 -80.2464 187° South 275 316 32,000  Level Cleveland Center
Wed 03:37:06 AM 39.8658 -80.2575 186° South 275 316 32,000  Level Cleveland Center
Wed 03:38:06 AM 39.7886 -80.2694 187° South 277 319 32,000  Level Cleveland Center
Wed 03:39:07 AM 39.7114 -80.2806 186° South 280 322 32,000  Level Cleveland Center
Wed 03:40:07 AM 39.6342 -80.2933 187° South 281 323 32,000  Level Cleveland Center
Wed 03:40:50 AM 39.5839 -80.3036 189° South 280 322 32,000  Level Indianapolis Center
Wed 03:41:50 AM 39.5050 -80.3150 186° South 284 327 32,000  Level Indianapolis Center
Wed 03:42:50 AM 39.4272 -80.3278 187° South 281 323 32,000  Level Indianapolis Center
Wed 03:44:03 AM 39.3261 -80.3433 187° South 278 320 32,000  Level Washington Center
Wed 03:45:05 AM 39.2483 -80.3572 188° South 278 320 32,000  Level Washington Center
Wed 03:46:03 AM 39.1708 -80.3681 186° South 283 326 32,000  Level Washington Center
Wed 03:47:03 AM 39.0933 -80.3792 186° South 283 326 32,000  Level Washington Center
Wed 03:48:04 AM 39.0136 -80.3925 187° South 288 331 32,000  Level Washington Center
Wed 03:49:05 AM 38.9358 -80.4036 186° South 288 331 32,000  Level Washington Center
Wed 03:50:03 AM 38.8583 -80.4169 188° South 293 337 32,000  Level Washington Center
Wed 03:51:04 AM 38.7783 -80.4306 188° South 293 337 32,000  Level Washington Center
Wed 03:52:03 AM 38.6986 -80.4464 189° South 293 337 32,000  Level Washington Center
Wed 03:53:05 AM 38.6211 -80.4572 186° South 293 337 32,000  Level Washington Center
Wed 03:54:06 AM 38.5497 -80.4686 187° South 293 337 32,000  Level Washington Center
Wed 03:55:04 AM 38.4719 -80.4794 186° South 288 331 32,000  Level Washington Center
Wed 03:56:03 AM 38.3922 -80.4928 187° South 288 331 32,000  Level Washington Center
Wed 03:57:05 AM 38.3125 -80.5033 186° South 288 331 32,000  Level Washington Center
Wed 03:58:06 AM 38.2244 -80.5161 187° South 293 337 32,000  Level Washington Center
Wed 03:59:03 AM 38.1447 -80.5292 187° South 293 337 32,000  Level Washington Center
Wed 04:00:06 AM 38.0669 -80.5400 186° South 293 337 32,000  Level Washington Center
Wed 04:01:05 AM 37.9936 -80.5508 187° South 293 337 32,000 -103 Level Washington Center
Wed 04:02:03 AM 37.9158 -80.5642 188° South 293 337 31,800 -529 Descending Washington Center
Wed 04:04:29 AM 37.7069 -80.5928 186° South 292 336 30,200 -641 Descending Atlanta Center
Wed 04:05:29 AM 37.6239 -80.6044 186° South 297 342 29,600 -600 Descending Atlanta Center
Wed 04:06:29 AM 37.5431 -80.6158 186° South 297 342 29,000 -600 Descending Atlanta Center
Wed 04:07:29 AM 37.4661 -80.6269 187° South 297 342 28,400 -600 Descending Atlanta Center
Wed 04:08:29 AM 37.3811 -80.6411 188° South 303 349 27,800 -600 Descending Atlanta Center
Wed 04:09:29 AM 37.2961 -80.6525 186° South 314 361 27,200 -600 Descending Atlanta Center
Wed 04:10:29 AM 37.2089 -80.6642 186° South 314 361 26,600 -694 Descending Atlanta Center
Wed 04:11:30 AM 37.1153 -80.6761 186° South 314 361 25,800 -700 Descending Atlanta Center
Wed 04:12:29 AM 37.0281 -80.6903 187° South 314 361 25,200 -655 Descending Atlanta Center
Wed 04:13:29 AM 36.9408 -80.7017 186° South 314 361 24,500 -700 Descending Atlanta Center
Wed 04:14:29 AM 36.8536 -80.7156 187° South 314 361 23,800 -722 Descending Atlanta Center
Wed 04:22:29 AM 36.2283 -80.8058 185° South 291 335 18,000 -702 Descending Atlanta Center
Wed 04:23:00 AM 36.1963 -80.7865 187° South  Level FlightAware Approximate
Wed 04:23:53 AM 36.1642 -80.8161 187° South 291 335 17,200  Level Atlanta Center
Wed 04:24:00 AM 36.1194 -80.7983 187° South  Level FlightAware Approximate
Wed 04:25:00 AM 36.0424 -80.8102 187° South  Level FlightAware Approximate
Wed 04:25:05 AM 36.0414 -80.8314 186° South 291 335 15,700  Level Atlanta Center
Wed 04:28:17 AM 35.8211 -80.8631 185° South 274 315 15,000 -543 Descending Atlanta Center
Wed 04:34:29 AM 35.3744 -80.8550 180° South 274 315 10,600 -853 Descending Atlanta Center
Wed 04:34:37 AM 35.3261 -80.8467 172° South 258 297 9,600 -2,200 Descending Atlanta Center
Wed 04:36:29 AM 35.2069 -80.8358 180° South 264 304 6,200 -1,814 Descending Atlanta Center
Wed 04:36:46 AM 35.1861 -80.8342 176° South 216 249 5,700 -1,043 Descending Atlanta Center
Wed 04:37:00 AM 35.2137 -80.9491 180° South  Level Estimated
Wed 04:38:00 AM 35.2137 -80.9491 180° South  Level Estimated
Wed 04:38:24 AM 35.1339 -80.8261 173° South 172 198 4,200  Level Atlanta Center
Wed 04:39:00 AM 35.2137 -80.9491 180° South  Level Estimated
Wed 04:39:02 AM 35.0939 -80.8200 173° South 132 152 4,100  Level Atlanta Center
Wed 04:39:17 AM 35.0836 -80.8206 183° South 173 199 3,700 -1,019 Descending Atlanta Center
Wed 04:39:55 AM 35.0519 -80.8142 171° South 150 173 3,200 -403 Descending Atlanta Center
Wed 04:41:46 AM 35.0544 -80.9078 327° Northwest 158 182 2,700 -169 Descending Atlanta Center
Wed 04:42:52 AM 35.1092 -80.9261 345° North 232 267 2,700 -513 Level Atlanta Center
Wed 04:43:00 AM 35.2137 -80.9491 180° South  Level Estimated
Wed 04:43:43 AM 35.1636 -80.9342 353° North 180 207 1,700  Level Atlanta Center
Wed 04:45:00 AM 35.2000 -80.9333 305° West  Level FlightAware Approximate
Wed 04:52:00 AM 35.2137 -80.9491 305° West  Level Estimated
Wed 04:53:00 AM 35.2137 -80.9491 305° West  Level Estimated
Wed 04:54:00 AM 35.2137 -80.9491 305° West  Level Estimated
Wed 04:55:00 AM 35.2137 -80.9491 305° West  Level Estimated
Wed 04:56:00 AM 35.2137 -80.9491 305° West  Level Estimated
Wed 04:57:00 AM 35.2137 -80.9491 305° West  Level Estimated

Login

Don't have an account? Register now (free) for customized features, flight alerts, and more!